sensor_id;sensor_type;location;lat;lon;timestamp;P1;durP1;ratioP1;P2;durP2;ratioP2
61091;SDS011;46975;51.898;11.444;2022-12-10T00:01:33;27.90;;;11.55;;
61091;SDS011;46975;51.898;11.444;2022-12-10T00:04:00;25.75;;;11.98;;
61091;SDS011;46975;51.898;11.444;2022-12-10T00:06:27;26.13;;;11.82;;
61091;SDS011;46975;51.898;11.444;2022-12-10T00:08:54;28.50;;;10.48;;
61091;SDS011;46975;51.898;11.444;2022-12-10T00:11:20;21.98;;;10.25;;
61091;SDS011;46975;51.898;11.444;2022-12-10T00:13:47;23.90;;;10.32;;
61091;SDS011;46975;51.898;11.444;2022-12-10T00:16:14;26.90;;;11.40;;
61091;SDS011;46975;51.898;11.444;2022-12-10T00:18:41;27.42;;;10.93;;
61091;SDS011;46975;51.898;11.444;2022-12-10T00:21:09;26.50;;;11.13;;
61091;SDS011;46975;51.898;11.444;2022-12-10T00:23:37;24.38;;;10.32;;
61091;SDS011;46975;51.898;11.444;2022-12-10T00:26:04;30.55;;;11.48;;
61091;SDS011;46975;51.898;11.444;2022-12-10T00:28:31;23.30;;;11.63;;
61091;SDS011;46975;51.898;11.444;2022-12-10T00:31:01;34.08;;;13.05;;
61091;SDS011;46975;51.898;11.444;2022-12-10T00:33:31;23.67;;;9.93;;
61091;SDS011;46975;51.898;11.444;2022-12-10T00:36:01;27.75;;;11.15;;
61091;SDS011;46975;51.898;11.444;2022-12-10T00:38:28;29.67;;;11.93;;
61091;SDS011;46975;51.898;11.444;2022-12-10T00:40:54;30.08;;;12.15;;
61091;SDS011;46975;51.898;11.444;2022-12-10T00:43:20;29.70;;;11.77;;
61091;SDS011;46975;51.898;11.444;2022-12-10T00:45:45;34.38;;;12.70;;
61091;SDS011;46975;51.898;11.444;2022-12-10T00:48:11;29.52;;;13.52;;
61091;SDS011;46975;51.898;11.444;2022-12-10T00:50:36;31.55;;;13.45;;
61091;SDS011;46975;51.898;11.444;2022-12-10T00:53:02;33.15;;;11.88;;
61091;SDS011;46975;51.898;11.444;2022-12-10T00:55:28;27.95;;;13.48;;
61091;SDS011;46975;51.898;11.444;2022-12-10T00:57:53;39.40;;;16.23;;
61091;SDS011;46975;51.898;11.444;2022-12-10T01:00:19;34.53;;;13.07;;
61091;SDS011;46975;51.898;11.444;2022-12-10T01:02:44;37.15;;;14.18;;
61091;SDS011;46975;51.898;11.444;2022-12-10T01:05:10;36.42;;;14.23;;
61091;SDS011;46975;51.898;11.444;2022-12-10T01:07:36;35.30;;;14.20;;
61091;SDS011;46975;51.898;11.444;2022-12-10T01:10:02;41.13;;;14.30;;
61091;SDS011;46975;51.898;11.444;2022-12-10T01:12:28;40.25;;;15.60;;
61091;SDS011;46975;51.898;11.444;2022-12-10T01:14:54;36.10;;;14.05;;
61091;SDS011;46975;51.898;11.444;2022-12-10T01:17:19;42.72;;;15.65;;
61091;SDS011;46975;51.898;11.444;2022-12-10T01:19:46;41.58;;;18.35;;
61091;SDS011;46975;51.898;11.444;2022-12-10T01:22:12;41.38;;;16.05;;
61091;SDS011;46975;51.898;11.444;2022-12-10T01:24:38;41.75;;;18.35;;
61091;SDS011;46975;51.898;11.444;2022-12-10T01:27:03;48.33;;;18.30;;
61091;SDS011;46975;51.898;11.444;2022-12-10T01:29:29;44.70;;;16.98;;
61091;SDS011;46975;51.898;11.444;2022-12-10T01:31:56;40.67;;;15.60;;
61091;SDS011;46975;51.898;11.444;2022-12-10T01:34:22;44.38;;;15.75;;
61091;SDS011;46975;51.898;11.444;2022-12-10T01:36:50;44.85;;;16.58;;
61091;SDS011;46975;51.898;11.444;2022-12-10T01:39:18;44.33;;;15.57;;
61091;SDS011;46975;51.898;11.444;2022-12-10T01:41:46;41.43;;;16.33;;
61091;SDS011;46975;51.898;11.444;2022-12-10T01:46:43;48.92;;;19.92;;
61091;SDS011;46975;51.898;11.444;2022-12-10T01:49:18;39.50;;;16.73;;
61091;SDS011;46975;51.898;11.444;2022-12-10T01:51:59;39.95;;;16.27;;
61091;SDS011;46975;51.898;11.444;2022-12-10T01:54:27;43.40;;;16.42;;
61091;SDS011;46975;51.898;11.444;2022-12-10T01:57:06;42.20;;;17.50;;
61091;SDS011;46975;51.898;11.444;2022-12-10T01:59:33;41.00;;;16.25;;
61091;SDS011;46975;51.898;11.444;2022-12-10T02:02:02;45.17;;;15.40;;
61091;SDS011;46975;51.898;11.444;2022-12-10T02:04:47;36.63;;;15.38;;
61091;SDS011;46975;51.898;11.444;2022-12-10T02:11:10;39.92;;;17.83;;
61091;SDS011;46975;51.898;11.444;2022-12-10T02:13:10;39.83;;;14.95;;
61091;SDS011;46975;51.898;11.444;2022-12-10T02:15:49;35.03;;;14.68;;
61091;SDS011;46975;51.898;11.444;2022-12-10T02:20:58;35.20;;;14.88;;
61091;SDS011;46975;51.898;11.444;2022-12-10T02:23:32;32.80;;;11.43;;
61091;SDS011;46975;51.898;11.444;2022-12-10T02:26:09;36.20;;;14.23;;
61091;SDS011;46975;51.898;11.444;2022-12-10T02:31:30;29.42;;;12.32;;
61091;SDS011;46975;51.898;11.444;2022-12-10T02:33:58;30.38;;;11.32;;
61091;SDS011;46975;51.898;11.444;2022-12-10T02:38:54;34.63;;;12.20;;
61091;SDS011;46975;51.898;11.444;2022-12-10T02:41:25;40.88;;;14.23;;
61091;SDS011;46975;51.898;11.444;2022-12-10T02:44:18;32.10;;;11.98;;
61091;SDS011;46975;51.898;11.444;2022-12-10T02:46:47;33.50;;;14.53;;
61091;SDS011;46975;51.898;11.444;2022-12-10T02:49:14;28.75;;;11.90;;
61091;SDS011;46975;51.898;11.444;2022-12-10T02:51:42;34.30;;;12.98;;
61091;SDS011;46975;51.898;11.444;2022-12-10T02:54:33;33.53;;;13.73;;
61091;SDS011;46975;51.898;11.444;2022-12-10T02:57:00;31.88;;;11.82;;
61091;SDS011;46975;51.898;11.444;2022-12-10T03:02:16;25.75;;;11.93;;
61091;SDS011;46975;51.898;11.444;2022-12-10T03:07:37;26.35;;;11.38;;
61091;SDS011;46975;51.898;11.444;2022-12-10T03:10:34;30.23;;;12.73;;
61091;SDS011;46975;51.898;11.444;2022-12-10T03:13:06;30.77;;;12.63;;
61091;SDS011;46975;51.898;11.444;2022-12-10T03:15:35;28.95;;;12.55;;
61091;SDS011;46975;51.898;11.444;2022-12-10T03:18:06;25.08;;;12.20;;
61091;SDS011;46975;51.898;11.444;2022-12-10T03:20:34;36.42;;;14.02;;
61091;SDS011;46975;51.898;11.444;2022-12-10T03:23:03;27.67;;;11.45;;
61091;SDS011;46975;51.898;11.444;2022-12-10T03:25:33;31.48;;;13.50;;
61091;SDS011;46975;51.898;11.444;2022-12-10T03:28:00;28.85;;;12.88;;
61091;SDS011;46975;51.898;11.444;2022-12-10T03:30:26;26.45;;;11.05;;
61091;SDS011;46975;51.898;11.444;2022-12-10T03:32:52;26.65;;;12.50;;
61091;SDS011;46975;51.898;11.444;2022-12-10T03:35:19;26.98;;;13.73;;
61091;SDS011;46975;51.898;11.444;2022-12-10T03:40:14;30.00;;;11.32;;
61091;SDS011;46975;51.898;11.444;2022-12-10T03:42:43;28.25;;;12.38;;
61091;SDS011;46975;51.898;11.444;2022-12-10T03:45:09;29.70;;;12.13;;
61091;SDS011;46975;51.898;11.444;2022-12-10T03:47:35;29.90;;;12.18;;
61091;SDS011;46975;51.898;11.444;2022-12-10T03:50:01;28.05;;;12.32;;
61091;SDS011;46975;51.898;11.444;2022-12-10T03:52:27;29.55;;;11.80;;
61091;SDS011;46975;51.898;11.444;2022-12-10T03:54:53;32.30;;;13.43;;
61091;SDS011;46975;51.898;11.444;2022-12-10T03:57:18;30.10;;;12.32;;
61091;SDS011;46975;51.898;11.444;2022-12-10T03:59:44;31.27;;;14.68;;
61091;SDS011;46975;51.898;11.444;2022-12-10T04:02:09;27.48;;;12.95;;
61091;SDS011;46975;51.898;11.444;2022-12-10T04:04:35;32.13;;;14.40;;
61091;SDS011;46975;51.898;11.444;2022-12-10T04:07:01;29.23;;;13.95;;
61091;SDS011;46975;51.898;11.444;2022-12-10T04:09:27;28.20;;;11.80;;
61091;SDS011;46975;51.898;11.444;2022-12-10T04:11:56;33.05;;;14.65;;
61091;SDS011;46975;51.898;11.444;2022-12-10T04:14:23;29.80;;;12.23;;
61091;SDS011;46975;51.898;11.444;2022-12-10T04:17:08;24.75;;;11.00;;
61091;SDS011;46975;51.898;11.444;2022-12-10T04:19:33;27.52;;;12.10;;
61091;SDS011;46975;51.898;11.444;2022-12-10T04:21:59;32.35;;;14.77;;
61091;SDS011;46975;51.898;11.444;2022-12-10T04:24:43;36.90;;;15.48;;
61091;SDS011;46975;51.898;11.444;2022-12-10T04:27:28;34.75;;;15.48;;
61091;SDS011;46975;51.898;11.444;2022-12-10T04:30:01;39.67;;;16.58;;
61091;SDS011;46975;51.898;11.444;2022-12-10T04:32:28;35.03;;;14.35;;
61091;SDS011;46975;51.898;11.444;2022-12-10T04:34:54;33.92;;;15.18;;
61091;SDS011;46975;51.898;11.444;2022-12-10T04:37:20;33.95;;;15.30;;
61091;SDS011;46975;51.898;11.444;2022-12-10T04:39:46;35.85;;;17.48;;
61091;SDS011;46975;51.898;11.444;2022-12-10T04:42:13;41.45;;;16.60;;
61091;SDS011;46975;51.898;11.444;2022-12-10T04:44:39;39.83;;;16.98;;
61091;SDS011;46975;51.898;11.444;2022-12-10T04:47:06;38.33;;;15.82;;
61091;SDS011;46975;51.898;11.444;2022-12-10T04:51:59;34.63;;;14.65;;
61091;SDS011;46975;51.898;11.444;2022-12-10T04:54:25;35.90;;;15.13;;
61091;SDS011;46975;51.898;11.444;2022-12-10T04:56:51;35.33;;;15.88;;
61091;SDS011;46975;51.898;11.444;2022-12-10T04:59:17;39.72;;;14.90;;
61091;SDS011;46975;51.898;11.444;2022-12-10T05:01:43;38.38;;;16.30;;
61091;SDS011;46975;51.898;11.444;2022-12-10T05:04:10;34.28;;;15.85;;
61091;SDS011;46975;51.898;11.444;2022-12-10T05:06:37;37.40;;;16.55;;
61091;SDS011;46975;51.898;11.444;2022-12-10T05:09:04;34.00;;;15.05;;
61091;SDS011;46975;51.898;11.444;2022-12-10T05:11:30;42.75;;;16.13;;
61091;SDS011;46975;51.898;11.444;2022-12-10T05:13:57;46.28;;;17.80;;
61091;SDS011;46975;51.898;11.444;2022-12-10T05:16:24;34.45;;;15.07;;
61091;SDS011;46975;51.898;11.444;2022-12-10T05:18:52;38.90;;;16.25;;
61091;SDS011;46975;51.898;11.444;2022-12-10T05:21:19;36.00;;;15.13;;
61091;SDS011;46975;51.898;11.444;2022-12-10T05:23:46;39.55;;;16.63;;
61091;SDS011;46975;51.898;11.444;2022-12-10T05:28:50;32.25;;;14.13;;
61091;SDS011;46975;51.898;11.444;2022-12-10T05:31:19;38.30;;;15.05;;
61091;SDS011;46975;51.898;11.444;2022-12-10T05:33:54;36.08;;;13.90;;
61091;SDS011;46975;51.898;11.444;2022-12-10T05:36:22;34.97;;;14.75;;
61091;SDS011;46975;51.898;11.444;2022-12-10T05:38:49;35.47;;;13.70;;
61091;SDS011;46975;51.898;11.444;2022-12-10T05:41:17;41.13;;;15.45;;
61091;SDS011;46975;51.898;11.444;2022-12-10T05:46:12;36.35;;;14.57;;
61091;SDS011;46975;51.898;11.444;2022-12-10T05:48:39;41.00;;;16.52;;
61091;SDS011;46975;51.898;11.444;2022-12-10T05:51:05;36.47;;;15.48;;
61091;SDS011;46975;51.898;11.444;2022-12-10T05:53:32;36.67;;;14.73;;
61091;SDS011;46975;51.898;11.444;2022-12-10T05:55:59;38.20;;;17.60;;
61091;SDS011;46975;51.898;11.444;2022-12-10T05:58:29;41.65;;;17.77;;
61091;SDS011;46975;51.898;11.444;2022-12-10T06:00:56;45.67;;;17.52;;
61091;SDS011;46975;51.898;11.444;2022-12-10T06:03:22;43.90;;;17.52;;
61091;SDS011;46975;51.898;11.444;2022-12-10T06:05:48;40.15;;;16.05;;
61091;SDS011;46975;51.898;11.444;2022-12-10T06:08:13;40.38;;;15.43;;
61091;SDS011;46975;51.898;11.444;2022-12-10T06:10:39;47.83;;;17.13;;
61091;SDS011;46975;51.898;11.444;2022-12-10T06:13:05;39.03;;;16.52;;
61091;SDS011;46975;51.898;11.444;2022-12-10T06:15:31;41.75;;;16.27;;
61091;SDS011;46975;51.898;11.444;2022-12-10T06:17:57;52.60;;;19.48;;
61091;SDS011;46975;51.898;11.444;2022-12-10T06:20:24;50.55;;;19.27;;
61091;SDS011;46975;51.898;11.444;2022-12-10T06:22:51;41.97;;;18.00;;
61091;SDS011;46975;51.898;11.444;2022-12-10T06:25:17;55.08;;;18.00;;
61091;SDS011;46975;51.898;11.444;2022-12-10T06:27:42;55.30;;;19.95;;
61091;SDS011;46975;51.898;11.444;2022-12-10T06:30:09;46.90;;;17.23;;
61091;SDS011;46975;51.898;11.444;2022-12-10T06:32:35;55.65;;;19.63;;
61091;SDS011;46975;51.898;11.444;2022-12-10T06:35:01;53.78;;;21.42;;
61091;SDS011;46975;51.898;11.444;2022-12-10T06:37:27;56.67;;;20.30;;
61091;SDS011;46975;51.898;11.444;2022-12-10T06:39:52;47.05;;;18.10;;
61091;SDS011;46975;51.898;11.444;2022-12-10T06:42:18;49.65;;;18.45;;
61091;SDS011;46975;51.898;11.444;2022-12-10T06:44:45;46.85;;;19.13;;
61091;SDS011;46975;51.898;11.444;2022-12-10T06:47:11;54.33;;;20.77;;
61091;SDS011;46975;51.898;11.444;2022-12-10T06:49:36;48.83;;;19.52;;
61091;SDS011;46975;51.898;11.444;2022-12-10T06:52:02;47.92;;;18.27;;
61091;SDS011;46975;51.898;11.444;2022-12-10T06:54:28;46.88;;;18.40;;
61091;SDS011;46975;51.898;11.444;2022-12-10T06:56:54;57.13;;;20.23;;
61091;SDS011;46975;51.898;11.444;2022-12-10T06:59:21;50.67;;;18.75;;
61091;SDS011;46975;51.898;11.444;2022-12-10T07:01:47;50.10;;;18.40;;
61091;SDS011;46975;51.898;11.444;2022-12-10T07:04:13;46.20;;;18.23;;
61091;SDS011;46975;51.898;11.444;2022-12-10T07:06:39;48.38;;;16.85;;
61091;SDS011;46975;51.898;11.444;2022-12-10T07:09:04;47.63;;;18.63;;
61091;SDS011;46975;51.898;11.444;2022-12-10T07:11:30;44.58;;;15.63;;
61091;SDS011;46975;51.898;11.444;2022-12-10T07:13:57;39.30;;;15.45;;
61091;SDS011;46975;51.898;11.444;2022-12-10T07:16:24;34.60;;;15.75;;
61091;SDS011;46975;51.898;11.444;2022-12-10T07:18:52;34.30;;;14.80;;
61091;SDS011;46975;51.898;11.444;2022-12-10T07:21:21;29.88;;;13.00;;
61091;SDS011;46975;51.898;11.444;2022-12-10T07:23:48;35.43;;;14.73;;
61091;SDS011;46975;51.898;11.444;2022-12-10T07:26:14;37.38;;;16.42;;
61091;SDS011;46975;51.898;11.444;2022-12-10T07:28:40;40.17;;;16.30;;
61091;SDS011;46975;51.898;11.444;2022-12-10T07:31:06;36.08;;;15.45;;
61091;SDS011;46975;51.898;11.444;2022-12-10T07:33:33;37.17;;;14.33;;
61091;SDS011;46975;51.898;11.444;2022-12-10T07:36:02;26.85;;;11.93;;
61091;SDS011;46975;51.898;11.444;2022-12-10T07:38:29;27.92;;;14.38;;
61091;SDS011;46975;51.898;11.444;2022-12-10T07:40:55;35.90;;;14.32;;
61091;SDS011;46975;51.898;11.444;2022-12-10T07:43:21;27.05;;;13.10;;
61091;SDS011;46975;51.898;11.444;2022-12-10T07:45:47;27.88;;;12.10;;
61091;SDS011;46975;51.898;11.444;2022-12-10T07:48:12;32.97;;;13.45;;
61091;SDS011;46975;51.898;11.444;2022-12-10T07:50:39;28.67;;;11.35;;
61091;SDS011;46975;51.898;11.444;2022-12-10T07:53:05;27.92;;;13.93;;
61091;SDS011;46975;51.898;11.444;2022-12-10T07:55:31;28.35;;;13.52;;
61091;SDS011;46975;51.898;11.444;2022-12-10T07:57:57;33.22;;;13.48;;
61091;SDS011;46975;51.898;11.444;2022-12-10T08:00:22;35.50;;;14.48;;
61091;SDS011;46975;51.898;11.444;2022-12-10T08:02:48;35.10;;;13.75;;
61091;SDS011;46975;51.898;11.444;2022-12-10T08:05:14;34.88;;;13.68;;
61091;SDS011;46975;51.898;11.444;2022-12-10T08:07:39;32.90;;;13.07;;
61091;SDS011;46975;51.898;11.444;2022-12-10T08:10:06;33.75;;;14.80;;
61091;SDS011;46975;51.898;11.444;2022-12-10T08:12:32;31.48;;;13.77;;
61091;SDS011;46975;51.898;11.444;2022-12-10T08:14:57;34.45;;;14.55;;
61091;SDS011;46975;51.898;11.444;2022-12-10T08:17:23;31.48;;;15.48;;
61091;SDS011;46975;51.898;11.444;2022-12-10T08:19:49;32.03;;;13.77;;
61091;SDS011;46975;51.898;11.444;2022-12-10T08:22:15;38.35;;;16.23;;
61091;SDS011;46975;51.898;11.444;2022-12-10T08:24:41;41.90;;;15.43;;
61091;SDS011;46975;51.898;11.444;2022-12-10T08:27:07;41.63;;;15.80;;
61091;SDS011;46975;51.898;11.444;2022-12-10T08:29:33;44.63;;;16.30;;
61091;SDS011;46975;51.898;11.444;2022-12-10T08:31:58;39.50;;;16.45;;
61091;SDS011;46975;51.898;11.444;2022-12-10T08:34:24;42.08;;;16.92;;
61091;SDS011;46975;51.898;11.444;2022-12-10T08:36:50;46.33;;;17.35;;
61091;SDS011;46975;51.898;11.444;2022-12-10T08:39:15;41.95;;;17.55;;
61091;SDS011;46975;51.898;11.444;2022-12-10T08:41:42;41.95;;;18.73;;
61091;SDS011;46975;51.898;11.444;2022-12-10T08:44:09;41.35;;;16.70;;
61091;SDS011;46975;51.898;11.444;2022-12-10T08:46:36;37.22;;;15.07;;
61091;SDS011;46975;51.898;11.444;2022-12-10T08:49:02;38.67;;;15.80;;
61091;SDS011;46975;51.898;11.444;2022-12-10T08:51:28;39.22;;;16.05;;
61091;SDS011;46975;51.898;11.444;2022-12-10T08:53:54;45.90;;;16.85;;
61091;SDS011;46975;51.898;11.444;2022-12-10T08:56:20;50.85;;;19.30;;
61091;SDS011;46975;51.898;11.444;2022-12-10T08:58:46;47.00;;;20.77;;
61091;SDS011;46975;51.898;11.444;2022-12-10T09:01:13;54.03;;;21.73;;
61091;SDS011;46975;51.898;11.444;2022-12-10T09:06:07;51.30;;;18.00;;
61091;SDS011;46975;51.898;11.444;2022-12-10T09:08:35;47.90;;;18.05;;
61091;SDS011;46975;51.898;11.444;2022-12-10T09:11:05;45.40;;;17.48;;
61091;SDS011;46975;51.898;11.444;2022-12-10T09:13:36;45.38;;;15.50;;
61091;SDS011;46975;51.898;11.444;2022-12-10T09:16:02;47.88;;;17.50;;
61091;SDS011;46975;51.898;11.444;2022-12-10T09:18:28;40.53;;;15.93;;
61091;SDS011;46975;51.898;11.444;2022-12-10T09:20:54;45.15;;;17.77;;
61091;SDS011;46975;51.898;11.444;2022-12-10T09:23:19;49.60;;;17.73;;
61091;SDS011;46975;51.898;11.444;2022-12-10T09:25:45;40.10;;;15.30;;
61091;SDS011;46975;51.898;11.444;2022-12-10T09:28:11;48.95;;;15.63;;
61091;SDS011;46975;51.898;11.444;2022-12-10T09:30:36;49.63;;;18.17;;
61091;SDS011;46975;51.898;11.444;2022-12-10T09:33:02;45.42;;;17.23;;
61091;SDS011;46975;51.898;11.444;2022-12-10T09:35:28;43.35;;;17.10;;
61091;SDS011;46975;51.898;11.444;2022-12-10T09:37:53;38.25;;;15.43;;
61091;SDS011;46975;51.898;11.444;2022-12-10T09:40:29;42.72;;;14.35;;
61091;SDS011;46975;51.898;11.444;2022-12-10T09:48:58;39.50;;;16.25;;
61091;SDS011;46975;51.898;11.444;2022-12-10T09:51:45;48.80;;;18.58;;
61091;SDS011;46975;51.898;11.444;2022-12-10T09:54:28;36.70;;;13.68;;
61091;SDS011;46975;51.898;11.444;2022-12-10T09:56:59;39.17;;;14.57;;
61091;SDS011;46975;51.898;11.444;2022-12-10T09:59:29;31.88;;;13.20;;
61091;SDS011;46975;51.898;11.444;2022-12-10T10:07:31;35.83;;;14.05;;
61091;SDS011;46975;51.898;11.444;2022-12-10T10:10:51;38.47;;;13.88;;
61091;SDS011;46975;51.898;11.444;2022-12-10T10:15:33;30.80;;;13.35;;
61091;SDS011;46975;51.898;11.444;2022-12-10T10:18:29;32.13;;;12.82;;
61091;SDS011;46975;51.898;11.444;2022-12-10T10:21:03;28.88;;;11.32;;
61091;SDS011;46975;51.898;11.444;2022-12-10T10:23:32;32.83;;;11.82;;
61091;SDS011;46975;51.898;11.444;2022-12-10T10:25:58;34.72;;;13.00;;
61091;SDS011;46975;51.898;11.444;2022-12-10T10:28:24;27.27;;;12.23;;
61091;SDS011;46975;51.898;11.444;2022-12-10T10:30:52;31.17;;;12.90;;
61091;SDS011;46975;51.898;11.444;2022-12-10T10:33:19;31.92;;;12.93;;
61091;SDS011;46975;51.898;11.444;2022-12-10T10:35:49;31.88;;;13.25;;
61091;SDS011;46975;51.898;11.444;2022-12-10T10:38:23;28.08;;;12.45;;
61091;SDS011;46975;51.898;11.444;2022-12-10T10:40:58;26.50;;;11.90;;
61091;SDS011;46975;51.898;11.444;2022-12-10T10:43:27;26.45;;;10.98;;
61091;SDS011;46975;51.898;11.444;2022-12-10T10:46:13;25.17;;;11.25;;
61091;SDS011;46975;51.898;11.444;2022-12-10T10:48:41;26.38;;;11.25;;
61091;SDS011;46975;51.898;11.444;2022-12-10T10:51:13;23.83;;;10.38;;
61091;SDS011;46975;51.898;11.444;2022-12-10T10:53:49;26.58;;;11.75;;
61091;SDS011;46975;51.898;11.444;2022-12-10T10:56:23;23.05;;;11.07;;
61091;SDS011;46975;51.898;11.444;2022-12-10T11:06:53;27.50;;;13.55;;
61091;SDS011;46975;51.898;11.444;2022-12-10T11:09:24;34.10;;;14.63;;
61091;SDS011;46975;51.898;11.444;2022-12-10T11:11:57;28.50;;;12.45;;
61091;SDS011;46975;51.898;11.444;2022-12-10T11:22:29;25.10;;;11.93;;
61091;SDS011;46975;51.898;11.444;2022-12-10T11:24:57;26.85;;;11.68;;
61091;SDS011;46975;51.898;11.444;2022-12-10T11:30:18;25.23;;;11.55;;
61091;SDS011;46975;51.898;11.444;2022-12-10T11:38:29;25.88;;;11.30;;
61091;SDS011;46975;51.898;11.444;2022-12-10T11:41:12;21.02;;;11.93;;
61091;SDS011;46975;51.898;11.444;2022-12-10T11:44:15;25.10;;;11.63;;
61091;SDS011;46975;51.898;11.444;2022-12-10T11:47:18;27.30;;;10.98;;
61091;SDS011;46975;51.898;11.444;2022-12-10T11:58:30;27.67;;;12.68;;
61091;SDS011;46975;51.898;11.444;2022-12-10T12:01:08;30.67;;;14.45;;
61091;SDS011;46975;51.898;11.444;2022-12-10T12:09:19;31.60;;;15.02;;
61091;SDS011;46975;51.898;11.444;2022-12-10T12:14:46;31.17;;;13.18;;
61091;SDS011;46975;51.898;11.444;2022-12-10T12:17:24;27.10;;;11.48;;
61091;SDS011;46975;51.898;11.444;2022-12-10T12:19:56;29.50;;;12.70;;
61091;SDS011;46975;51.898;11.444;2022-12-10T12:22:26;26.13;;;11.00;;
61091;SDS011;46975;51.898;11.444;2022-12-10T12:24:57;29.08;;;12.20;;
61091;SDS011;46975;51.898;11.444;2022-12-10T12:35:55;22.17;;;10.43;;
61091;SDS011;46975;51.898;11.444;2022-12-10T12:43:52;24.52;;;10.38;;
61091;SDS011;46975;51.898;11.444;2022-12-10T12:46:39;24.15;;;11.65;;
61091;SDS011;46975;51.898;11.444;2022-12-10T12:51:45;22.90;;;10.90;;
61091;SDS011;46975;51.898;11.444;2022-12-10T12:54:36;20.48;;;9.75;;
61091;SDS011;46975;51.898;11.444;2022-12-10T13:05:17;16.45;;;9.13;;
61091;SDS011;46975;51.898;11.444;2022-12-10T13:10:45;20.95;;;10.18;;
61091;SDS011;46975;51.898;11.444;2022-12-10T13:14:27;21.23;;;11.18;;
61091;SDS011;46975;51.898;11.444;2022-12-10T13:22:00;19.55;;;10.38;;
61091;SDS011;46975;51.898;11.444;2022-12-10T13:32:18;21.58;;;11.00;;
61091;SDS011;46975;51.898;11.444;2022-12-10T13:34:46;19.70;;;10.75;;
61091;SDS011;46975;51.898;11.444;2022-12-10T13:37:32;24.88;;;10.98;;
61091;SDS011;46975;51.898;11.444;2022-12-10T13:48:59;26.58;;;10.38;;
61091;SDS011;46975;51.898;11.444;2022-12-10T13:57:10;22.77;;;9.27;;
61091;SDS011;46975;51.898;11.444;2022-12-10T13:59:49;22.33;;;10.40;;
61091;SDS011;46975;51.898;11.444;2022-12-10T14:08:20;21.15;;;9.68;;
61091;SDS011;46975;51.898;11.444;2022-12-10T14:10:51;21.88;;;10.80;;
61091;SDS011;46975;51.898;11.444;2022-12-10T14:13:19;23.27;;;11.48;;
61091;SDS011;46975;51.898;11.444;2022-12-10T14:15:54;24.60;;;12.02;;
61091;SDS011;46975;51.898;11.444;2022-12-10T14:18:21;22.23;;;10.93;;
61091;SDS011;46975;51.898;11.444;2022-12-10T14:20:50;19.55;;;10.68;;
61091;SDS011;46975;51.898;11.444;2022-12-10T14:23:25;24.00;;;10.35;;
61091;SDS011;46975;51.898;11.444;2022-12-10T14:25:58;21.50;;;11.30;;
61091;SDS011;46975;51.898;11.444;2022-12-10T14:28:29;25.13;;;11.60;;
61091;SDS011;46975;51.898;11.444;2022-12-10T14:30:58;24.50;;;11.63;;
61091;SDS011;46975;51.898;11.444;2022-12-10T14:33:24;24.27;;;10.35;;
61091;SDS011;46975;51.898;11.444;2022-12-10T14:35:51;23.88;;;11.35;;
61091;SDS011;46975;51.898;11.444;2022-12-10T14:38:29;21.73;;;11.80;;
61091;SDS011;46975;51.898;11.444;2022-12-10T14:40:58;26.17;;;11.20;;
61091;SDS011;46975;51.898;11.444;2022-12-10T14:43:28;20.95;;;10.50;;
61091;SDS011;46975;51.898;11.444;2022-12-10T14:45:59;21.60;;;11.63;;
61091;SDS011;46975;51.898;11.444;2022-12-10T14:48:27;21.02;;;11.38;;
61091;SDS011;46975;51.898;11.444;2022-12-10T14:50:53;19.17;;;10.48;;
61091;SDS011;46975;51.898;11.444;2022-12-10T14:53:24;21.40;;;11.35;;
61091;SDS011;46975;51.898;11.444;2022-12-10T14:56:14;26.00;;;11.95;;
61091;SDS011;46975;51.898;11.444;2022-12-10T14:58:46;21.92;;;10.95;;
61091;SDS011;46975;51.898;11.444;2022-12-10T15:01:37;22.50;;;11.45;;
61091;SDS011;46975;51.898;11.444;2022-12-10T15:04:12;21.80;;;11.70;;
61091;SDS011;46975;51.898;11.444;2022-12-10T15:06:40;20.00;;;11.35;;
61091;SDS011;46975;51.898;11.444;2022-12-10T15:14:22;22.42;;;11.05;;
61091;SDS011;46975;51.898;11.444;2022-12-10T15:16:49;19.17;;;9.80;;
61091;SDS011;46975;51.898;11.444;2022-12-10T15:21:58;18.67;;;9.70;;
61091;SDS011;46975;51.898;11.444;2022-12-10T15:27:15;20.77;;;11.38;;
61091;SDS011;46975;51.898;11.444;2022-12-10T15:29:45;22.13;;;11.38;;
61091;SDS011;46975;51.898;11.444;2022-12-10T15:34:41;20.27;;;10.48;;
61091;SDS011;46975;51.898;11.444;2022-12-10T15:37:26;20.40;;;10.95;;
61091;SDS011;46975;51.898;11.444;2022-12-10T15:39:59;19.45;;;11.00;;
61091;SDS011;46975;51.898;11.444;2022-12-10T15:42:28;23.13;;;10.87;;
61091;SDS011;46975;51.898;11.444;2022-12-10T15:45:21;19.15;;;10.02;;
61091;SDS011;46975;51.898;11.444;2022-12-10T15:47:52;18.35;;;9.07;;
61091;SDS011;46975;51.898;11.444;2022-12-10T15:50:22;22.95;;;10.85;;
61091;SDS011;46975;51.898;11.444;2022-12-10T15:52:48;19.25;;;10.60;;
61091;SDS011;46975;51.898;11.444;2022-12-10T15:55:14;18.17;;;9.90;;
61091;SDS011;46975;51.898;11.444;2022-12-10T15:57:41;18.67;;;10.05;;
61091;SDS011;46975;51.898;11.444;2022-12-10T16:00:18;23.33;;;9.93;;
61091;SDS011;46975;51.898;11.444;2022-12-10T16:05:31;17.15;;;9.20;;
61091;SDS011;46975;51.898;11.444;2022-12-10T16:08:00;17.20;;;10.23;;
61091;SDS011;46975;51.898;11.444;2022-12-10T16:10:32;15.93;;;8.93;;
61091;SDS011;46975;51.898;11.444;2022-12-10T16:12:59;18.73;;;10.00;;
61091;SDS011;46975;51.898;11.444;2022-12-10T16:15:33;18.35;;;8.93;;
61091;SDS011;46975;51.898;11.444;2022-12-10T16:18:10;16.85;;;8.68;;
61091;SDS011;46975;51.898;11.444;2022-12-10T16:20:37;15.45;;;8.02;;
61091;SDS011;46975;51.898;11.444;2022-12-10T16:23:03;17.33;;;8.55;;
61091;SDS011;46975;51.898;11.444;2022-12-10T16:25:31;14.40;;;8.27;;
61091;SDS011;46975;51.898;11.444;2022-12-10T16:27:58;14.80;;;8.52;;
61091;SDS011;46975;51.898;11.444;2022-12-10T16:30:28;13.35;;;7.32;;
61091;SDS011;46975;51.898;11.444;2022-12-10T16:32:59;12.18;;;7.07;;
61091;SDS011;46975;51.898;11.444;2022-12-10T16:35:25;15.30;;;9.18;;
61091;SDS011;46975;51.898;11.444;2022-12-10T16:37:51;13.88;;;7.07;;
61091;SDS011;46975;51.898;11.444;2022-12-10T16:40:19;14.48;;;7.78;;
61091;SDS011;46975;51.898;11.444;2022-12-10T16:42:50;11.68;;;7.65;;
61091;SDS011;46975;51.898;11.444;2022-12-10T16:45:20;16.95;;;7.70;;
61091;SDS011;46975;51.898;11.444;2022-12-10T16:47:49;16.55;;;6.53;;
61091;SDS011;46975;51.898;11.444;2022-12-10T16:50:15;16.20;;;8.25;;
61091;SDS011;46975;51.898;11.444;2022-12-10T16:52:42;10.82;;;6.30;;
61091;SDS011;46975;51.898;11.444;2022-12-10T16:55:12;12.60;;;7.20;;
61091;SDS011;46975;51.898;11.444;2022-12-10T16:57:43;12.73;;;6.75;;
61091;SDS011;46975;51.898;11.444;2022-12-10T17:00:14;13.77;;;7.43;;
61091;SDS011;46975;51.898;11.444;2022-12-10T17:02:42;12.07;;;6.95;;
61091;SDS011;46975;51.898;11.444;2022-12-10T17:07:41;12.40;;;6.53;;
61091;SDS011;46975;51.898;11.444;2022-12-10T17:10:08;14.88;;;7.93;;
61091;SDS011;46975;51.898;11.444;2022-12-10T17:12:39;11.23;;;6.88;;